createdAt,value
2019-04-11T00:03:47.971Z,7.20
2019-04-11T00:08:47.520Z,7.10
2019-04-11T00:13:47.387Z,7.00
2019-04-11T00:18:47.202Z,6.90
2019-04-11T00:23:48.231Z,6.80
2019-04-11T00:28:48.054Z,6.60
2019-04-11T00:33:48.736Z,6.60
2019-04-11T00:38:48.402Z,6.50
2019-04-11T00:44:08.314Z,6.50
2019-04-11T00:49:08.253Z,6.40
2019-04-11T00:54:08.789Z,6.20
2019-04-11T00:59:08.513Z,6.10
2019-04-11T01:04:08.098Z,6.10
2019-04-11T01:09:08.297Z,6.20
2019-04-11T01:14:09.861Z,6.20
2019-04-11T01:19:10.750Z,6.10
2019-04-11T01:24:11.364Z,6.10
2019-04-11T01:29:11.336Z,6.00
2019-04-11T01:34:11.241Z,6.00
2019-04-11T01:39:29.492Z,6.00
2019-04-11T01:44:30.383Z,6.00
2019-04-11T01:49:30.376Z,5.90
2019-04-11T01:54:30.096Z,5.80
2019-04-11T01:59:29.800Z,5.90
2019-04-11T02:04:43.936Z,5.90
2019-04-11T02:09:44.228Z,5.80
2019-04-11T02:14:44.006Z,5.70
2019-04-11T02:19:44.679Z,5.70
2019-04-11T02:24:52.275Z,5.60
2019-04-11T02:29:52.953Z,5.60
2019-04-11T02:34:56.146Z,5.50
2019-04-11T02:39:55.784Z,5.40
2019-04-11T02:45:09.342Z,5.40
2019-04-11T02:49:57.347Z,5.60
2019-04-11T02:54:57.535Z,5.60
2019-04-11T02:59:59.853Z,5.50
2019-04-11T03:05:00.453Z,5.50
2019-04-11T03:10:00.603Z,5.30
2019-04-11T03:15:18.154Z,5.30
2019-04-11T03:20:18.406Z,5.20
2019-04-11T03:25:08.469Z,5.10
2019-04-11T03:30:13.740Z,5.00
2019-04-11T03:36:01.224Z,5.10
2019-04-11T03:40:30.487Z,5.10
2019-04-11T03:45:32.804Z,5.10
2019-04-11T03:50:17.467Z,5.20
2019-04-11T03:55:16.579Z,5.00
2019-04-11T04:00:16.708Z,5.00
2019-04-11T04:05:17.592Z,5.20
2019-04-11T04:10:20.332Z,4.90
2019-04-11T04:15:53.464Z,4.90
2019-04-11T04:20:46.941Z,5.00
2019-04-11T04:25:47.301Z,5.00
2019-04-11T04:30:47.150Z,5.00
2019-04-11T04:35:49.615Z,5.10
2019-04-11T04:41:05.988Z,5.00
2019-04-11T04:46:08.501Z,5.00
2019-04-11T04:50:56.402Z,4.90
2019-04-11T04:55:54.384Z,5.10
2019-04-11T05:00:57.834Z,5.00
2019-04-11T05:05:55.685Z,5.20
2019-04-11T05:10:57.729Z,5.20
2019-04-11T05:16:06.936Z,5.20
2019-04-11T05:20:59.019Z,5.10
2019-04-11T05:25:59.985Z,5.00
2019-04-11T05:31:00.462Z,5.10
2019-04-11T05:36:00.520Z,5.20
2019-04-11T05:41:02.105Z,5.50
2019-04-11T05:46:03.642Z,5.50
2019-04-11T05:51:04.673Z,5.40
2019-04-11T05:56:05.311Z,5.40
2019-04-11T06:01:12.929Z,5.40
2019-04-11T06:06:20.468Z,5.30
2019-04-11T06:11:24.777Z,5.50
2019-04-11T06:16:36.126Z,5.60
2019-04-11T06:21:33.975Z,5.80
2019-04-11T06:26:51.813Z,6.20
2019-04-11T06:32:09.769Z,6.20
2019-04-11T06:37:31.934Z,6.40
2019-04-11T06:42:47.658Z,6.60
2019-04-11T06:48:03.192Z,6.60
2019-04-11T06:53:02.792Z,6.80
2019-04-11T06:58:07.274Z,6.90
2019-04-11T07:03:18.817Z,7.00
2019-04-11T07:08:11.345Z,6.80
2019-04-11T07:13:18.521Z,7.00
2019-04-11T07:18:37.698Z,7.20
2019-04-11T07:23:57.476Z,7.10
2019-04-11T07:29:23.723Z,7.20
2019-04-11T07:34:40.123Z,7.50
2019-04-11T07:40:15.330Z,7.60
2019-04-11T07:45:20.961Z,7.80
2019-04-11T07:50:21.361Z,7.60
2019-04-11T07:55:23.134Z,7.70
2019-04-11T08:00:47.138Z,8.00
2019-04-11T08:06:05.292Z,7.90
2019-04-11T08:11:27.900Z,8.20
2019-04-11T08:16:46.808Z,8.30
2019-04-11T08:22:04.349Z,8.10
2019-04-11T08:27:21.794Z,8.20
2019-04-11T08:32:42.395Z,8.70
2019-04-11T08:37:55.935Z,8.60
2019-04-11T08:43:04.646Z,9.20
2019-04-11T08:48:06.114Z,9.50
2019-04-11T08:53:20.631Z,8.90
2019-04-11T08:58:40.586Z,8.70
2019-04-11T09:04:07.027Z,8.30
2019-04-11T09:09:25.569Z,7.90
2019-04-11T09:14:44.489Z,8.60
2019-04-11T09:20:03.348Z,9.00
2019-04-11T09:25:23.190Z,10.10
2019-04-11T09:30:33.713Z,9.40
2019-04-11T09:35:33.889Z,8.80
2019-04-11T09:40:52.586Z,9.00
2019-04-11T09:46:16.950Z,8.70
2019-04-11T09:51:42.287Z,9.40
2019-04-11T09:57:04.785Z,10.70
2019-04-11T10:02:23.353Z,9.80
2019-04-11T10:07:41.971Z,9.50
2019-04-11T10:13:00.831Z,9.60
2019-04-11T10:18:25.311Z,9.50
2019-04-11T10:23:25.009Z,10.10
2019-04-11T10:28:47.289Z,10.10
2019-04-11T10:34:19.530Z,9.70
2019-04-11T10:39:43.823Z,9.60
2019-04-11T10:44:52.003Z,9.50
2019-04-11T10:50:09.103Z,9.40
2019-04-11T10:55:19.529Z,9.40
2019-04-11T11:00:27.725Z,9.30
2019-04-11T11:05:28.365Z,9.60
2019-04-11T11:10:31.203Z,9.50
2019-04-11T11:15:33.826Z,9.20
2019-04-11T11:20:43.010Z,8.90
2019-04-11T11:25:49.989Z,9.20
2019-04-11T11:31:03.200Z,9.80
2019-04-11T11:36:21.371Z,9.90
2019-04-11T11:41:40.585Z,9.90
2019-04-11T11:47:01.595Z,10.00
2019-04-11T11:52:34.183Z,9.90
2019-04-11T11:57:40.075Z,9.70
2019-04-11T12:02:46.462Z,9.40
2019-04-11T12:07:54.336Z,9.10
2019-04-11T12:13:23.098Z,8.90
2019-04-11T12:18:46.524Z,8.70
2019-04-11T12:24:00.676Z,8.40
2019-04-11T12:29:12.134Z,8.50
2019-04-11T12:34:36.565Z,8.40
2019-04-11T12:39:54.030Z,8.60
2019-04-11T12:45:12.450Z,9.10
2019-04-11T12:50:31.677Z,9.40
2019-04-11T12:55:37.196Z,9.70
2019-04-11T13:00:56.789Z,9.80
2019-04-11T13:05:59.898Z,10.00
2019-04-11T13:10:59.527Z,10.00
2019-04-11T13:16:11.373Z,9.90
2019-04-11T13:21:28.613Z,9.80
2019-04-11T13:26:59.478Z,9.80
2019-04-11T13:32:16.930Z,9.60
2019-04-11T13:37:35.594Z,9.20
2019-04-11T13:42:54.302Z,9.10
2019-04-11T13:48:11.917Z,8.90
2019-04-11T13:53:48.697Z,8.80
2019-04-11T13:59:23.137Z,8.70
2019-04-11T14:04:27.288Z,8.70
2019-04-11T14:09:36.445Z,8.80
2019-04-11T14:15:01.336Z,8.50
2019-04-11T14:20:32.411Z,8.40
2019-04-11T14:25:50.230Z,8.50
2019-04-11T14:31:12.702Z,8.40
2019-04-11T14:36:40.550Z,8.50
2019-04-11T14:41:59.871Z,8.40
2019-04-11T14:47:15.779Z,8.40
2019-04-11T14:52:41.365Z,8.40
2019-04-11T14:57:59.593Z,8.30
2019-04-11T15:03:24.541Z,8.30
2019-04-11T15:08:34.166Z,8.10
2019-04-11T15:13:34.010Z,8.00
2019-04-11T15:18:36.413Z,7.90
2019-04-11T15:23:39.077Z,7.70
2019-04-11T15:28:51.306Z,7.80
2019-04-11T15:34:17.549Z,7.70
2019-04-11T15:39:54.398Z,7.80
2019-04-11T15:45:02.169Z,7.90
2019-04-11T15:50:20.519Z,7.90
2019-04-11T15:55:54.322Z,7.90
2019-04-11T16:00:59.530Z,7.90
2019-04-11T16:06:17.153Z,7.90
2019-04-11T16:11:35.856Z,7.80
2019-04-11T16:16:53.205Z,7.80
2019-04-11T16:22:06.911Z,7.80
2019-04-11T16:27:32.038Z,7.80
2019-04-11T16:32:33.302Z,7.50
2019-04-11T16:37:32.982Z,7.50
2019-04-11T16:42:36.333Z,7.50
2019-04-11T16:47:53.724Z,7.40
2019-04-11T16:52:59.978Z,7.40
2019-04-11T16:57:59.539Z,7.40
2019-04-11T17:02:59.207Z,7.40
2019-04-11T17:08:25.899Z,7.40
2019-04-11T17:13:25.987Z,7.20
2019-04-11T17:18:26.439Z,7.10
2019-04-11T17:23:26.033Z,7.20
2019-04-11T17:28:25.623Z,7.10
2019-04-11T17:33:27.818Z,7.00
2019-04-11T17:38:26.545Z,6.80
2019-04-11T17:43:26.170Z,6.80
2019-04-11T17:48:25.858Z,6.80
2019-04-11T17:53:26.437Z,6.90
2019-04-11T17:58:27.226Z,6.90
2019-04-11T18:03:27.465Z,6.90
2019-04-11T18:08:27.032Z,6.80
2019-04-11T18:13:28.003Z,6.80
2019-04-11T18:18:28.823Z,6.80
2019-04-11T18:23:28.370Z,6.60
2019-04-11T18:28:27.967Z,6.60
2019-04-11T18:33:31.460Z,6.60
2019-04-11T18:38:31.831Z,6.60
2019-04-11T18:43:30.103Z,6.60
2019-04-11T18:48:29.738Z,6.70
2019-04-11T18:53:29.334Z,6.70
2019-04-11T18:58:28.897Z,6.60
2019-04-11T19:03:36.167Z,6.60
2019-04-11T19:08:30.057Z,6.50
2019-04-11T19:13:29.710Z,6.50
2019-04-11T19:18:29.251Z,6.40
2019-04-11T19:23:28.877Z,6.40
2019-04-11T19:28:28.459Z,6.40
2019-04-11T19:33:28.005Z,6.40
2019-04-11T19:38:29.791Z,6.40
2019-04-11T19:43:29.334Z,6.30
2019-04-11T19:48:28.909Z,6.30
2019-04-11T19:53:28.444Z,6.20
2019-04-11T19:58:29.837Z,6.30
2019-04-11T20:03:31.684Z,6.30
2019-04-11T20:08:30.709Z,6.30
2019-04-11T20:13:32.234Z,6.20
2019-04-11T20:18:31.478Z,6.20
2019-04-11T20:23:31.054Z,6.20
2019-04-11T20:28:30.670Z,6.10
2019-04-11T20:33:33.832Z,6.20
2019-04-11T20:38:31.578Z,6.10
2019-04-11T20:43:31.114Z,6.10
2019-04-11T20:48:31.498Z,6.10
2019-04-11T20:53:32.195Z,6.10
2019-04-11T20:58:31.751Z,6.00
2019-04-11T21:03:31.290Z,6.00
2019-04-11T21:08:33.000Z,6.00
2019-04-11T21:13:32.128Z,6.10
2019-04-11T21:18:32.278Z,6.00
2019-04-11T21:23:32.222Z,5.90
2019-04-11T21:28:32.024Z,5.90
2019-04-11T21:33:34.010Z,5.90
2019-04-11T21:38:32.859Z,5.90
2019-04-11T21:43:35.847Z,5.80
2019-04-11T21:48:35.837Z,5.80
2019-04-11T21:53:36.703Z,5.90
2019-04-11T21:58:36.433Z,5.90
2019-04-11T22:03:37.016Z,5.90
2019-04-11T22:08:36.725Z,5.90
2019-04-11T22:13:37.899Z,5.90
2019-04-11T22:18:38.854Z,5.90
2019-04-11T22:23:48.266Z,5.80
2019-04-11T22:28:39.817Z,5.80
2019-04-11T22:33:57.655Z,5.80
2019-04-11T22:38:56.402Z,5.90
2019-04-11T22:43:56.117Z,5.80
2019-04-11T22:48:55.649Z,5.80
2019-04-11T22:54:00.193Z,5.80
2019-04-11T22:58:56.737Z,5.80
2019-04-11T23:03:59.348Z,5.90
2019-04-11T23:08:58.878Z,5.90
2019-04-11T23:13:58.534Z,6.00
2019-04-11T23:18:58.159Z,5.80
2019-04-11T23:23:57.771Z,5.70
2019-04-11T23:28:57.377Z,5.50
2019-04-11T23:33:57.101Z,5.70
2019-04-11T23:38:56.722Z,5.80
2019-04-11T23:43:56.266Z,5.80
2019-04-11T23:48:55.862Z,5.70
2019-04-11T23:53:58.968Z,5.70
2019-04-11T23:58:56.694Z,5.60
